Eastern Oregon Regional At Pendleton Airport
KPDT : now visible

Airfield :











YOU CAN JOIN US ON...

 
LOGIN :

Register | Disclaimer

   EN    FR    IT 

 









Legend :    VFR   Marginal VFR   IFR   Intensive IFR   Very Intensive IFR
Visi :
Ceiling :
>= 8 km
>= 3000ft
5 to 8 km
1000 to 3000 ft
1500m to 5 km
500 to 1000 ft
800 to 1500m
200 to 500 ft
< 800m
< 200 ft
Symbols :   Thunderstorms  Fog  Heavy snow  Heavy precipitations  Wind > 20 kt






- Airport Elevation : 1497 ft


KPDT - Eastern Oregon Regional At Pendleton

CURRENT METAR :
  • 252353Z 24019G29KT 10SM BKN080 22/08 A2982 RMK AO2 PK WND 25029/2346 RAB2259E25 SLP087 P0000 60000 T02170078 10222 20183 58002

EXPIRED METARs :
  • 252253Z 23016G25KT 10SM OVC060 21/08 A2983 RMK AO2 PK WND 18028/2222 RAB41E52 SLP091 P0000 T02060078
  • 252153Z 23018G24KT 10SM OVC070 22/06 A2982 RMK AO2 PK WND 24030/2132 SLP088 T02170061

TAF KPDT
Valid from the 26 at 00:00 until the 27 at 00:00 UTC


252332Z 2600/2624 23018G27KT P6SM -RA OVC070
FM260400 25013KT P6SM OVC060
FM261200 22010KT P6SM SCT060 BKN200
FM261800 25015G25KT P6SM SCT200
KZSE FIR / North America



MET'MAP, your aeronautical weather chart ! - Copyright ORBIFLY December 2007 - Disclaimer

ORBIFLY MET'MAP TEAM :

Programming & Development : Alexandra Zaïnal
Concept & original design : Baudouin d'Aumeries
Assistance for programming : Marc-Olivier Méhu
Technical & hardware support : Manuel Goepfert

Contact : metmap@orbifly.com




SOURCES & CREDITS :

   NOAA       Earth
Advisory